Terminal Aerodrome Forecast
Issued by NWS

Home | Current Version | Previous Version | Text Only | Print | Product List | Glossary On
Versions: 1 2 3 4 5 6 7 8 9 10 11 12 13 14
000
FTUS45 KTFX 231600 AAA
TAFHVR
TAF AMD
KHVR 231632Z 2317/2412 07008KT P6SM -SHRA VCTS SCT050CB BKN100
     FM231800 11012KT P6SM SCT080
     FM240200 11016KT P6SM SCT080 BKN150
      TEMPO 2402/2406 VRB30G40KT 3SM +TSRAGS OVC015CB
     FM240900 11005KT P6SM SKC=

USA.gov is the U.S. government's official web portal to all federal, state and local government web resources and services.